Time;durP1;ratioP1;P1;durP2;ratioP2;P2;SDS_P1;SDS_P2;PMS_P1;PMS_P2;Temp;Humidity;BMP_temperature;BMP_pressure;BME280_temperature;BME280_humidity;BME280_pressure;Samples;Min_cycle;Max_cycle;Signal;HPM_P1;HPM_P2
2024/03/10 00:00:59;;;;;;;;;1.00;1.00;;;;;13.26;100.00;98633.63;2098841;28;46576;-48
2024/03/10 00:02:00;;;;;;;;;1.00;1.00;;;;;13.28;100.00;98631.72;2098841;28;46496;-53
2024/03/10 00:03:04;;;;;;;;;1.00;1.00;;;;;13.31;100.00;98630.66;2098239;28;46042;-49
2024/03/10 00:04:04;;;;;;;;;1.00;1.00;;;;;13.33;100.00;98632.25;2098734;28;46626;-47
2024/03/10 00:05:05;;;;;;;;;1.00;1.00;;;;;13.36;100.00;98628.56;2098612;28;46870;-50
2024/03/10 00:06:06;;;;;;;;;1.67;1.67;;;;;13.35;100.00;98630.34;2099000;28;46630;-52
2024/03/10 00:07:06;;;;;;;;;2.00;2.00;;;;;13.37;100.00;98628.44;2096493;28;46653;-49
2024/03/10 00:08:07;;;;;;;;;1.67;1.67;;;;;13.40;100.00;98630.91;2089140;28;46529;-48
2024/03/10 00:09:08;;;;;;;;;2.00;1.00;;;;;13.41;100.00;98631.75;2090044;28;46332;-46
2024/03/10 00:10:10;;;;;;;;;0.00;0.00;;;;;13.43;100.00;98629.84;2099033;28;46551;-48
2024/03/10 00:11:10;;;;;;;;;1.00;1.00;;;;;13.40;100.00;98627.38;2098938;28;46535;-47
2024/03/10 00:12:11;;;;;;;;;1.00;1.00;;;;;13.41;100.00;98629.09;2099098;28;46716;-45
2024/03/10 00:13:11;;;;;;;;;1.00;1.00;;;;;13.39;100.00;98631.84;2099072;28;46588;-47
2024/03/10 00:14:12;;;;;;;;;1.00;1.00;;;;;13.41;100.00;98634.41;2089995;28;46552;-49
2024/03/10 00:15:12;;;;;;;;;1.00;1.00;;;;;13.41;100.00;98635.25;2089885;28;46711;-47
2024/03/10 00:16:13;;;;;;;;;1.00;1.00;;;;;13.40;100.00;98638.03;2098475;28;46154;-49
2024/03/10 00:17:13;;;;;;;;;1.00;1.00;;;;;13.43;100.00;98630.69;2098391;28;46799;-46
2024/03/10 00:18:13;;;;;;;;;1.00;1.00;;;;;13.41;100.00;98629.09;2098528;28;46465;-46
2024/03/10 00:19:14;;;;;;;;;1.00;1.00;;;;;13.42;100.00;98630.78;2098439;28;46255;-45
2024/03/10 00:20:14;;;;;;;;;1.67;1.67;;;;;13.38;100.00;98630.16;2098535;28;46255;-47
2024/03/10 00:21:14;;;;;;;;;2.00;2.00;;;;;13.37;100.00;98624.94;2098843;28;46241;-45
2024/03/10 00:22:15;;;;;;;;;1.00;1.00;;;;;13.44;100.00;98624.41;2080797;28;46450;-49
2024/03/10 00:23:15;;;;;;;;;1.33;1.33;;;;;13.47;100.00;98626.88;2079426;28;47651;-50
2024/03/10 00:24:16;;;;;;;;;0.67;0.67;;;;;13.42;100.00;98626.31;2098548;28;46838;-48
2024/03/10 00:25:16;;;;;;;;;1.00;1.00;;;;;13.42;100.00;98622.78;2099265;28;46541;-45
2024/03/10 00:26:16;;;;;;;;;1.33;1.33;;;;;13.43;100.00;98627.16;2098899;28;45885;-49
2024/03/10 00:27:17;;;;;;;;;1.67;1.67;;;;;13.43;100.00;98625.34;2099356;28;46622;-49
2024/03/10 00:28:17;;;;;;;;;1.33;1.33;;;;;13.42;100.00;98628.97;2098808;28;46588;-48
2024/03/10 00:29:17;;;;;;;;;1.00;1.00;;;;;13.45;100.00;98630.56;2098875;28;46783;-48
2024/03/10 00:30:18;;;;;;;;;1.00;1.00;;;;;13.43;100.00;98636.00;2100095;28;45708;-48
2024/03/10 00:31:19;;;;;;;;;2.00;2.00;;;;;13.43;100.00;98632.50;2099484;28;46857;-48
2024/03/10 00:32:19;;;;;;;;;1.00;1.00;;;;;13.41;100.00;98629.94;2098305;27;46243;-48
2024/03/10 00:33:19;;;;;;;;;1.00;1.00;;;;;13.42;100.00;98633.44;2099288;28;46257;-47
2024/03/10 00:34:20;;;;;;;;;1.67;1.67;;;;;13.36;100.00;98645.38;2098551;28;45835;-46
2024/03/10 00:35:21;;;;;;;;;3.00;2.00;;;;;13.39;100.00;98639.00;2098869;28;46766;-46
2024/03/10 00:36:22;;;;;;;;;1.50;1.50;;;;;13.41;100.00;98635.25;2099017;28;46310;-47
2024/03/10 00:37:22;;;;;;;;;1.33;1.33;;;;;13.41;100.00;98631.75;2099100;28;46765;-47
2024/03/10 00:38:23;;;;;;;;;2.67;2.00;;;;;13.42;100.00;98633.44;2098482;28;46760;-45
2024/03/10 00:39:23;;;;;;;;;1.00;1.00;;;;;13.44;100.00;98637.72;2099199;28;46444;-46
2024/03/10 00:40:23;;;;;;;;;2.00;2.00;;;;;13.44;100.00;98632.38;2096149;28;46194;-47
2024/03/10 00:41:24;;;;;;;;;2.00;2.00;;;;;13.45;100.00;98634.09;2097909;28;46575;-46
2024/03/10 00:42:24;;;;;;;;;1.00;1.00;;;;;13.45;100.00;98631.44;2099217;28;46742;-48
2024/03/10 00:43:24;;;;;;;;;2.67;2.00;;;;;13.41;100.00;98626.41;2099625;28;46416;-45
2024/03/10 00:44:26;;;;;;;;;1.00;1.00;;;;;13.40;100.00;98630.03;2097862;28;47174;-45
2024/03/10 00:45:26;;;;;;;;;1.50;1.50;;;;;13.40;100.00;98627.38;2099850;28;46840;-48
2024/03/10 00:46:28;;;;;;;;;1.67;1.67;;;;;13.40;100.00;98630.03;2099383;28;46876;-47
2024/03/10 00:47:28;;;;;;;;;2.00;1.00;;;;;13.38;100.00;98627.47;2099395;28;45267;-47
2024/03/10 00:48:28;;;;;;;;;1.00;1.00;;;;;13.42;100.00;98626.31;2098916;28;46779;-49
2024/03/10 00:49:29;;;;;;;;;1.00;1.00;;;;;13.44;100.00;98626.22;2099636;28;46928;-45
2024/03/10 00:50:29;;;;;;;;;1.33;1.33;;;;;13.42;100.00;98628.97;2099487;28;46609;-50
2024/03/10 00:51:30;;;;;;;;;2.33;2.33;;;;;13.43;100.00;98620.03;2098919;28;45564;-48
2024/03/10 00:52:30;;;;;;;;;2.33;1.00;;;;;13.46;100.00;98626.94;2098369;28;46507;-46
2024/03/10 00:53:31;;;;;;;;;1.00;1.00;;;;;13.46;100.00;98627.81;2099517;28;46043;-47
2024/03/10 00:54:32;;;;;;;;;2.00;2.00;;;;;13.43;100.00;98630.69;2098047;28;46308;-46
2024/03/10 00:55:32;;;;;;;;;1.00;1.00;;;;;13.49;100.00;98630.28;2099208;28;47180;-49
2024/03/10 00:56:32;;;;;;;;;1.00;1.00;;;;;13.49;100.00;98630.28;2098874;28;46707;-46
2024/03/10 00:57:33;;;;;;;;;1.00;1.00;;;;;13.49;100.00;98632.09;2098630;28;46917;-48
2024/03/10 00:58:33;;;;;;;;;1.33;1.33;;;;;13.50;100.00;98634.66;2096304;28;46448;-45
2024/03/10 00:59:33;;;;;;;;;1.67;1.67;;;;;13.51;100.00;98627.53;2098356;28;45680;-45
2024/03/10 01:00:34;;;;;;;;;1.00;1.00;;;;;13.51;100.00;98632.84;2099517;28;46395;-45
2024/03/10 01:01:34;;;;;;;;;1.33;1.33;;;;;13.51;100.00;98630.19;2098877;28;46296;-50
2024/03/10 01:02:34;;;;;;;;;0.67;0.67;;;;;13.50;100.00;98626.66;2098679;28;46686;-47
2024/03/10 01:03:35;;;;;;;;;2.00;2.00;;;;;13.51;100.00;98630.19;2098532;28;46620;-46
2024/03/10 01:04:35;;;;;;;;;3.50;2.00;;;;;13.48;100.00;98633.91;2098814;28;46729;-46
2024/03/10 01:05:35;;;;;;;;;2.00;2.00;;;;;13.42;100.00;98623.66;2098536;28;46294;-47
2024/03/10 01:06:36;;;;;;;;;1.00;1.00;;;;;13.39;100.00;98621.19;2097706;28;46831;-47
2024/03/10 01:07:37;;;;;;;;;2.00;2.00;;;;;13.40;100.00;98627.38;2098879;28;46818;-47
2024/03/10 01:08:38;;;;;;;;;2.00;2.00;;;;;13.38;100.00;98627.47;2098227;28;45786;-47
2024/03/10 01:09:39;;;;;;;;;1.00;1.00;;;;;13.40;100.00;98627.38;2097960;28;47660;-46
2024/03/10 01:10:39;;;;;;;;;2.00;2.00;;;;;13.39;100.00;98620.34;2098358;28;46694;-47
2024/03/10 01:11:41;;;;;;;;;2.00;2.00;;;;;13.35;100.00;98621.50;2089611;28;47123;-47
2024/03/10 01:12:42;;;;;;;;;0.00;0.00;;;;;13.34;100.00;98626.00;2089414;28;46620;-46
2024/03/10 01:13:43;;;;;;;;;1.00;1.00;;;;;13.37;100.00;98617.78;2096271;27;46332;-47
2024/03/10 01:14:43;;;;;;;;;1.75;1.75;;;;;13.40;100.00;98622.06;2097665;28;46983;-46
2024/03/10 01:15:44;;;;;;;;;1.00;1.00;;;;;13.41;100.00;98623.75;2098640;28;46357;-48
2024/03/10 01:16:44;;;;;;;;;3.00;1.33;;;;;13.42;100.00;98615.66;2097990;28;46457;-48
2024/03/10 01:17:46;;;;;;;;;1.00;1.00;;;;;13.42;100.00;98618.31;2098635;28;46430;-48
2024/03/10 01:18:47;;;;;;;;;2.00;2.00;;;;;13.42;100.00;98614.81;2097311;28;45163;-48
2024/03/10 01:19:47;;;;;;;;;1.67;1.67;;;;;13.44;100.00;98616.41;2098562;28;46636;-48
2024/03/10 01:20:48;;;;;;;;;3.00;2.00;;;;;13.44;100.00;98613.75;2098534;28;46475;-46
2024/03/10 01:21:49;;;;;;;;;2.00;2.00;;;;;13.49;100.00;98610.78;2098186;28;46370;-46
2024/03/10 01:22:49;;;;;;;;;2.00;2.00;;;;;13.49;100.00;98605.47;2098971;28;45459;-47
2024/03/10 01:23:49;;;;;;;;;1.00;1.00;;;;;13.52;100.00;98599.91;2099044;28;46211;-47
2024/03/10 01:24:50;;;;;;;;;1.00;1.00;;;;;13.51;100.00;98603.53;2097830;28;46869;-46
2024/03/10 01:25:50;;;;;;;;;2.00;2.00;;;;;13.48;100.00;98596.63;2098092;28;46151;-46
2024/03/10 01:26:51;;;;;;;;;1.67;1.67;;;;;13.49;100.00;98593.00;2099192;28;46707;-46
2024/03/10 01:27:51;;;;;;;;;2.00;2.00;;;;;13.48;100.00;98591.28;2098885;28;46169;-45
2024/03/10 01:28:51;;;;;;;;;1.00;1.00;;;;;13.45;100.00;98595.94;2098476;28;45133;-45
2024/03/10 01:29:52;;;;;;;;;1.33;1.33;;;;;13.46;100.00;98594.97;2095095;28;46180;-45
2024/03/10 01:30:52;;;;;;;;;1.00;1.00;;;;;13.42;100.00;98583.69;2097711;28;46357;-47
2024/03/10 01:31:53;;;;;;;;;0.67;0.67;;;;;13.43;100.00;98590.72;2097513;28;46913;-47
2024/03/10 01:32:53;;;;;;;;;1.00;1.00;;;;;13.46;100.00;98581.66;2100952;27;46482;-46
2024/03/10 01:33:53;;;;;;;;;1.00;1.00;;;;;13.48;100.00;98582.44;2106800;27;46833;-46
2024/03/10 01:34:54;;;;;;;;;1.00;1.00;;;;;13.48;100.00;98577.97;2106160;27;46570;-48
2024/03/10 01:35:54;;;;;;;;;1.00;1.00;;;;;13.50;100.00;98585.84;2106660;27;45959;-49
2024/03/10 01:36:55;;;;;;;;;1.00;1.00;;;;;13.49;100.00;98576.16;2106527;27;47021;-50
2024/03/10 01:37:55;;;;;;;;;2.00;2.00;;;;;13.49;100.00;98571.66;2097490;28;46377;-47
2024/03/10 01:38:56;;;;;;;;;1.00;1.00;;;;;13.49;100.00;98581.47;2097295;27;45912;-46
2024/03/10 01:39:56;;;;;;;;;1.00;1.00;;;;;13.48;100.00;98575.28;2105921;27;46484;-45
2024/03/10 01:40:57;;;;;;;;;1.00;1.00;;;;;13.46;100.00;98579.84;2106476;27;46322;-46
2024/03/10 01:41:58;;;;;;;;;0.75;0.75;;;;;13.47;100.00;98580.72;2105479;27;46509;-45
2024/03/10 01:42:58;;;;;;;;;0.00;0.00;;;;;13.46;100.00;98577.19;2106661;27;45571;-48
2024/03/10 01:43:58;;;;;;;;;1.00;1.00;;;;;13.45;100.00;98587.94;2106637;27;47024;-46
2024/03/10 01:44:59;;;;;;;;;1.00;1.00;;;;;13.44;100.00;98589.75;2107115;27;46233;-50
2024/03/10 01:46:08;;;;;;;;;1.00;1.00;;;;;13.44;100.00;98588.91;2103222;27;46815;-47
2024/03/10 01:47:10;;;;;;;;;2.50;1.00;;;;;13.44;100.00;98583.56;2106254;27;46785;-47
2024/03/10 01:48:11;;;;;;;;;0.75;0.75;;;;;13.43;100.00;98572.06;2107003;27;46888;-48
2024/03/10 01:49:11;;;;;;;;;0.00;0.00;;;;;13.44;100.00;98570.25;2106536;27;46827;-47
2024/03/10 01:50:12;;;;;;;;;1.00;1.00;;;;;13.45;100.00;98574.63;2107621;27;45550;-48
2024/03/10 01:51:13;;;;;;;;;0.00;0.00;;;;;13.43;100.00;98577.41;2107106;27;46428;-52
2024/03/10 01:52:14;;;;;;;;;1.00;0.50;;;;;13.41;100.00;98576.66;2106018;27;46918;-47
2024/03/10 01:53:14;;;;;;;;;1.00;1.00;;;;;13.40;100.00;98566.97;2106163;27;46589;-49
2024/03/10 01:54:18;;;;;;;;;0.67;0.67;;;;;13.42;100.00;98570.38;2106759;27;46146;-47
2024/03/10 01:55:19;;;;;;;;;1.00;1.00;;;;;13.43;100.00;98576.53;2106615;27;46302;-48
2024/03/10 01:56:19;;;;;;;;;0.00;0.00;;;;;13.42;100.00;98561.50;2107322;27;46909;-52
2024/03/10 01:57:20;;;;;;;;;1.00;1.00;;;;;13.42;100.00;98556.19;2106496;27;45879;-48
2024/03/10 01:58:21;;;;;;;;;0.00;0.00;;;;;13.43;100.00;98555.22;2105849;27;46730;-46
2024/03/10 01:59:22;;;;;;;;;1.25;1.00;;;;;13.44;100.00;98557.78;2107576;27;46453;-48
2024/03/10 02:00:23;;;;;;;;;3.00;1.25;;;;;13.44;100.00;98557.78;2106260;27;46655;-50
2024/03/10 02:01:23;;;;;;;;;1.00;1.00;;;;;13.44;100.00;98556.94;2107115;27;46522;-46
2024/03/10 02:02:25;;;;;;;;;2.00;2.00;;;;;13.45;100.00;98551.50;2104834;27;46631;-46
2024/03/10 02:03:26;;;;;;;;;2.00;2.00;;;;;13.53;100.00;98558.97;2106532;27;46611;-47
2024/03/10 02:04:27;;;;;;;;;2.00;2.00;;;;;13.47;100.00;98554.09;2106680;27;46399;-50
2024/03/10 02:05:27;;;;;;;;;2.00;2.00;;;;;13.46;100.00;98561.19;2106791;27;46569;-48
2024/03/10 02:06:28;;;;;;;;;2.00;2.00;;;;;13.45;100.00;98558.63;2104392;27;46632;-47
2024/03/10 02:07:28;;;;;;;;;0.00;0.00;;;;;13.41;100.00;98557.16;2106041;27;46598;-47
2024/03/10 02:08:29;;;;;;;;;2.00;2.00;;;;;13.39;100.00;98559.91;2107288;27;46639;-49
2024/03/10 02:09:30;;;;;;;;;4.00;2.00;;;;;13.38;100.00;98566.22;2107095;27;46326;-47
2024/03/10 02:10:31;;;;;;;;;2.75;2.75;;;;;13.38;100.00;98562.69;2106959;27;45647;-46
2024/03/10 02:11:32;;;;;;;;;2.67;2.67;;;;;13.36;100.00;98567.28;2106700;27;45579;-48
2024/03/10 02:12:33;;;;;;;;;2.00;2.00;;;;;13.38;100.00;98562.69;2106536;27;46645;-49
2024/03/10 02:13:33;;;;;;;;;3.00;3.00;;;;;13.37;100.00;98564.50;2106638;27;46982;-49
2024/03/10 02:14:34;;;;;;;;;2.00;2.00;;;;;13.37;100.00;98574.31;2105465;27;46507;-46
2024/03/10 02:15:35;;;;;;;;;2.00;2.00;;;;;13.28;100.00;98570.44;2106905;27;47289;-48
2024/03/10 02:16:35;;;;;;;;;3.00;3.00;;;;;13.33;100.00;98573.63;2105726;27;46265;-48
2024/03/10 02:17:40;;;;;;;;;3.00;3.00;;;;;13.33;100.00;98578.97;2106911;27;46102;-47
2024/03/10 02:18:40;;;;;;;;;3.25;3.25;;;;;13.34;100.00;98569.16;2105339;27;46133;-48
2024/03/10 02:19:41;;;;;;;;;2.33;2.33;;;;;13.36;100.00;98580.59;2104237;27;46843;-49
2024/03/10 02:20:42;;;;;;;;;2.33;2.33;;;;;13.34;100.00;98574.50;2106962;27;46209;-47
2024/03/10 02:21:43;;;;;;;;;3.00;3.00;;;;;13.38;100.00;98581.34;2107197;27;45305;-49
2024/03/10 02:22:43;;;;;;;;;3.00;3.00;;;;;13.35;100.00;98584.22;2106129;27;47042;-52
2024/03/10 02:23:56;;;;;;;;;5.00;3.00;;;;;13.34;100.00;98583.38;2107027;27;46559;-46
2024/03/10 02:25:05;;;;;;;;;4.00;3.75;;;;;13.32;100.00;98573.75;2106709;27;46413;-46
2024/03/10 02:26:08;;;;;;;;;3.75;3.75;;;;;13.36;100.00;98581.44;2106546;27;46361;-47
2024/03/10 02:27:15;;;;;;;;;2.50;2.50;;;;;13.32;100.00;98579.94;2105715;27;46943;-49
2024/03/10 02:28:34;;;;;;;;;2.75;2.50;;;;;13.32;100.00;98576.41;2107054;27;46918;-46
2024/03/10 02:29:49;;;;;;;;;2.25;2.25;;;;;13.29;100.00;98579.28;2106585;27;46751;-47
2024/03/10 02:30:57;;;;;;;;;4.00;4.00;;;;;13.32;100.00;98573.75;2105009;27;46577;-46
2024/03/10 02:47:46;;;;;;;;;4.25;3.50;;;;;12.89;100.00;98568.56;2106318;27;46747;-46
2024/03/10 02:48:46;;;;;;;;;3.00;2.33;;;;;13.03;100.00;98560.53;2106276;27;46141;-47
2024/03/10 02:49:47;;;;;;;;;2.67;2.00;;;;;13.01;100.00;98561.59;2106464;27;46408;-46
2024/03/10 02:50:50;;;;;;;;;3.00;3.00;;;;;13.04;100.00;98556.06;2107087;27;46245;-50
2024/03/10 02:51:52;;;;;;;;;3.00;3.00;;;;;13.05;100.00;98553.28;2097628;28;46365;-47
2024/03/10 02:52:52;;;;;;;;;4.00;4.00;;;;;13.05;100.00;98560.44;2096177;28;46562;-49
2024/03/10 02:53:52;;;;;;;;;3.00;3.00;;;;;13.03;100.00;98547.22;2108026;27;46355;-47
2024/03/10 02:54:55;;;;;;;;;4.00;2.33;;;;;13.03;100.00;98543.69;2107885;27;46610;-48
2024/03/10 02:55:56;;;;;;;;;4.33;4.33;;;;;13.01;100.00;98538.47;2108600;27;45972;-48
2024/03/10 02:56:57;;;;;;;;;3.00;3.00;;;;;12.99;100.00;98536.88;2106666;27;46906;-49
2024/03/10 02:58:02;;;;;;;;;2.25;2.25;;;;;13.00;100.00;98528.78;2107180;27;46411;-50
2024/03/10 02:59:04;;;;;;;;;3.00;3.00;;;;;13.01;100.00;98533.16;2099726;27;46715;-50
2024/03/10 03:00:09;;;;;;;;;2.00;2.00;;;;;13.02;100.00;98534.84;2107827;27;46871;-49
2024/03/10 03:01:10;;;;;;;;;2.00;2.00;;;;;13.02;100.00;98534.00;2099514;28;46723;-47
2024/03/10 03:02:11;;;;;;;;;1.00;1.00;;;;;13.02;100.00;98542.84;2099722;27;46598;-50
2024/03/10 03:03:11;;;;;;;;;2.00;2.00;;;;;13.03;100.00;98541.88;2107504;27;46550;-48
2024/03/10 03:04:12;;;;;;;;;1.67;1.67;;;;;13.03;100.00;98539.22;2108285;27;46579;-48
2024/03/10 03:05:17;;;;;;;;;1.00;1.00;;;;;13.03;100.00;98538.38;2107062;27;47058;-47
2024/03/10 03:06:18;;;;;;;;;3.00;3.00;;;;;13.03;100.00;98543.69;2108143;27;47004;-48
2024/03/10 03:07:18;;;;;;;;;1.00;1.00;;;;;13.04;100.00;98542.75;2105949;27;45133;-51
2024/03/10 03:08:18;;;;;;;;;1.33;1.33;;;;;13.04;100.00;98546.25;2106916;27;46321;-50
2024/03/10 03:09:20;;;;;;;;;1.00;1.00;;;;;13.05;100.00;98539.97;2107347;27;46327;-48
2024/03/10 03:10:21;;;;;;;;;1.50;1.50;;;;;13.06;100.00;98541.69;2107138;27;46361;-50
2024/03/10 03:11:21;;;;;;;;;1.00;1.00;;;;;13.07;100.00;98535.41;2103537;27;46198;-45
2024/03/10 03:12:21;;;;;;;;;1.00;1.00;;;;;13.09;100.00;98532.66;2107144;27;45992;-51
2024/03/10 03:13:21;;;;;;;;;1.00;1.00;;;;;13.10;100.00;98529.03;2108090;27;46270;-49
2024/03/10 03:14:22;;;;;;;;;1.67;1.67;;;;;13.09;100.00;98533.50;2106885;27;46479;-46
2024/03/10 03:15:23;;;;;;;;;1.00;1.00;;;;;13.09;100.00;98544.16;2106798;27;45025;-47
2024/03/10 03:16:24;;;;;;;;;1.00;1.00;;;;;13.13;100.00;98547.47;2108667;27;46944;-45
2024/03/10 03:17:24;;;;;;;;;3.00;1.25;;;;;12.95;100.00;98552.19;2106896;27;46594;-51
2024/03/10 03:18:25;;;;;;;;;2.00;2.00;;;;;12.92;100.00;98553.25;2108307;27;45022;-49
2024/03/10 03:19:26;;;;;;;;;0.67;0.67;;;;;12.98;100.00;98553.81;2107268;27;46707;-49
2024/03/10 03:20:26;;;;;;;;;1.00;1.00;;;;;12.97;100.00;98550.28;2107719;27;45249;-48
2024/03/10 03:21:26;;;;;;;;;1.00;1.00;;;;;12.99;100.00;98542.22;2108426;27;46784;-50
2024/03/10 03:22:27;;;;;;;;;3.67;1.67;;;;;13.00;100.00;98550.09;2108441;27;46171;-48
2024/03/10 03:23:27;;;;;;;;;1.33;0.67;;;;;12.99;100.00;98545.72;2108115;27;47208;-46
2024/03/10 03:24:28;;;;;;;;;1.00;1.00;;;;;12.96;100.00;98544.13;2108510;27;46192;-47
2024/03/10 03:25:29;;;;;;;;;1.00;1.00;;;;;12.94;100.00;98550.47;2107060;27;46878;-47
2024/03/10 03:26:29;;;;;;;;;1.00;1.00;;;;;12.94;100.00;98558.47;2107401;27;45082;-47
2024/03/10 03:27:30;;;;;;;;;2.00;0.67;;;;;12.93;100.00;98557.59;2096323;28;46213;-46
2024/03/10 03:28:30;;;;;;;;;2.67;1.67;;;;;12.94;100.00;98555.81;2097982;28;46788;-46
2024/03/10 03:29:31;;;;;;;;;0.67;0.67;;;;;12.94;100.00;98553.13;2107176;27;45813;-47
2024/03/10 03:30:31;;;;;;;;;1.00;1.00;;;;;12.95;100.00;98552.19;2108732;27;45873;-46
2024/03/10 03:31:32;;;;;;;;;0.00;0.00;;;;;12.94;100.00;98550.47;2107862;27;45732;-44
2024/03/10 03:32:33;;;;;;;;;1.00;1.00;;;;;12.97;100.00;98547.63;2104653;27;45559;-43
2024/03/10 03:33:34;;;;;;;;;0.75;0.75;;;;;12.99;100.00;98550.19;2081632;28;45911;-44
2024/03/10 03:34:34;;;;;;;;;0.00;0.00;;;;;13.04;100.00;98556.91;2081180;28;46157;-47
2024/03/10 03:35:37;;;;;;;;;1.00;1.00;;;;;13.00;100.00;98552.75;2098080;28;46591;-49
2024/03/10 03:36:38;;;;;;;;;1.00;1.00;;;;;13.01;100.00;98565.09;2090134;28;46175;-47
2024/03/10 03:37:38;;;;;;;;;1.00;1.00;;;;;12.99;100.00;98560.84;2090160;28;46165;-49
2024/03/10 03:38:41;;;;;;;;;1.00;1.00;;;;;13.06;100.00;98562.97;2099447;28;47031;-49
2024/03/10 03:39:42;;;;;;;;;1.00;1.00;;;;;13.17;100.00;98564.94;2100189;28;46424;-46
2024/03/10 03:40:42;;;;;;;;;0.00;0.00;;;;;13.20;100.00;98568.28;2098619;28;46387;-49
2024/03/10 03:41:42;;;;;;;;;0.00;0.00;;;;;13.19;100.00;98574.56;2098505;28;46780;-49
2024/03/10 03:42:43;;;;;;;;;1.00;1.00;;;;;13.14;100.00;98567.81;2099136;28;46808;-51
2024/03/10 03:43:43;;;;;;;;;1.00;1.00;;;;;13.12;100.00;98567.06;2099673;28;45873;-50
2024/03/10 03:44:49;;;;;;;;;1.00;1.00;;;;;13.09;100.00;98560.13;2096221;28;46698;-46
2024/03/10 03:45:50;;;;;;;;;0.00;0.00;;;;;13.03;100.00;98563.19;2099004;28;45757;-47
2024/03/10 03:46:50;;;;;;;;;0.00;0.00;;;;;13.02;100.00;98568.63;2100051;28;46138;-46
2024/03/10 03:47:51;;;;;;;;;0.33;0.33;;;;;13.01;100.00;98565.09;2090857;28;46169;-46
2024/03/10 03:48:51;;;;;;;;;0.00;0.00;;;;;13.03;100.00;98573.84;2091688;28;46335;-47
2024/03/10 03:49:51;;;;;;;;;0.00;0.00;;;;;13.04;100.00;98564.03;2099634;28;46520;-46
2024/03/10 03:50:52;;;;;;;;;0.00;0.00;;;;;13.02;100.00;98558.81;2100001;28;46643;-46
2024/03/10 03:51:52;;;;;;;;;33.00;31.00;;;;;13.04;100.00;98556.91;2098291;28;45981;-48
2024/03/10 03:52:53;;;;;;;;;15.67;12.67;;;;;13.04;100.00;98551.59;2098783;28;46032;-48
2024/03/10 03:53:53;;;;;;;;;71.00;57.75;;;;;13.05;100.00;98550.63;2099924;28;46364;-48
2024/03/10 03:54:53;;;;;;;;;84.75;75.25;;;;;13.07;100.00;98555.84;2098359;28;46610;-50
2024/03/10 03:55:54;;;;;;;;;26.50;22.50;;;;;13.10;100.00;98558.34;2100117;28;45635;-46
2024/03/10 03:56:56;;;;;;;;;8.00;8.00;;;;;13.08;100.00;98560.22;2099232;28;47054;-46
2024/03/10 03:57:56;;;;;;;;;7.75;6.75;;;;;13.07;100.00;98553.19;2098935;28;46767;-47
2024/03/10 03:58:56;;;;;;;;;4.00;3.33;;;;;13.05;100.00;98555.09;2099074;28;46681;-48
2024/03/10 03:59:57;;;;;;;;;6.67;6.00;;;;;13.05;100.00;98550.63;2100171;28;46611;-47
2024/03/10 04:00:57;;;;;;;;;2.00;2.00;;;;;13.06;100.00;98547.00;2090959;28;46330;-46
2024/03/10 04:01:58;;;;;;;;;6.00;6.00;;;;;13.10;100.00;98534.38;2093745;28;47173;-51
2024/03/10 04:02:58;;;;;;;;;2.00;2.00;;;;;13.14;100.00;98541.19;2098121;28;46444;-50
2024/03/10 04:04:01;;;;;;;;;6.67;5.67;;;;;13.12;100.00;98529.78;2097819;28;46662;-49
2024/03/10 04:05:03;;;;;;;;;15.60;13.60;;;;;13.15;100.00;98525.09;2099163;28;46402;-48
2024/03/10 04:06:05;;;;;;;;;12.50;12.50;;;;;13.14;100.00;98514.56;2099190;28;46359;-50
2024/03/10 04:07:06;;;;;;;;;7.75;7.50;;;;;13.17;100.00;98519.66;2099328;28;46907;-48
2024/03/10 04:08:06;;;;;;;;;1.00;1.00;;;;;13.16;100.00;98518.81;2080791;28;46519;-47
2024/03/10 04:09:07;;;;;;;;;0.00;0.00;;;;;13.12;100.00;98522.66;2064690;28;46735;-49
2024/03/10 04:10:09;;;;;;;;;2.50;2.00;;;;;13.07;100.00;98519.41;2080971;28;46838;-47
2024/03/10 04:11:09;;;;;;;;;5.50;5.50;;;;;13.07;100.00;98518.56;2098402;28;47155;-46
2024/03/10 04:12:10;;;;;;;;;5.67;3.00;;;;;13.07;100.00;98526.56;2072365;28;45872;-48
2024/03/10 04:13:11;;;;;;;;;8.25;4.00;;;;;13.16;100.00;98528.59;2071630;28;46544;-45
2024/03/10 04:14:13;;;;;;;;;3.33;3.00;;;;;13.18;100.00;98530.25;2098434;28;46447;-49
2024/03/10 04:15:13;;;;;;;;;1.00;1.00;;;;;13.19;100.00;98539.09;2098002;28;46690;-49
2024/03/10 04:16:14;;;;;;;;;0.67;0.67;;;;;13.20;100.00;98551.44;2080157;28;45206;-49
2024/03/10 04:17:14;;;;;;;;;1.00;1.00;;;;;13.10;100.00;98561.00;2080723;28;46687;-48
2024/03/10 04:18:15;;;;;;;;;0.67;0.67;;;;;13.09;100.00;98564.63;2094728;27;46793;-46
2024/03/10 04:19:15;;;;;;;;;0.00;0.00;;;;;13.09;100.00;98569.94;2098286;28;46369;-50
2024/03/10 04:20:15;;;;;;;;;0.00;0.00;;;;;13.06;100.00;98568.31;2098974;28;46204;-48
2024/03/10 04:21:16;;;;;;;;;0.00;0.00;;;;;13.06;100.00;98578.09;2097974;28;46723;-49
2024/03/10 04:22:18;;;;;;;;;0.00;0.00;;;;;13.00;100.00;98584.69;2097619;28;46893;-48
2024/03/10 04:23:19;;;;;;;;;0.00;0.00;;;;;12.98;100.00;98581.28;2098595;28;46633;-47
2024/03/10 04:24:21;;;;;;;;;0.00;0.00;;;;;12.97;100.00;98579.59;2099064;28;46325;-49
2024/03/10 04:25:22;;;;;;;;;0.00;0.00;;;;;12.98;100.00;98581.28;2098683;28;46265;-46
2024/03/10 04:26:23;;;;;;;;;0.00;0.00;;;;;12.94;100.00;98588.59;2099037;28;46398;-51
2024/03/10 04:27:24;;;;;;;;;0.00;0.00;;;;;12.94;100.00;98588.59;2097937;28;46556;-47
2024/03/10 04:28:24;;;;;;;;;0.00;0.00;;;;;13.02;100.00;98589.91;2099567;28;46068;-52
2024/03/10 04:29:24;;;;;;;;;0.00;0.00;;;;;13.03;100.00;98586.31;2099112;28;45741;-48
2024/03/10 04:30:26;;;;;;;;;0.00;0.00;;;;;12.98;100.00;98594.59;2099019;28;46678;-48
2024/03/10 04:31:26;;;;;;;;;0.00;0.00;;;;;13.00;100.00;98590.03;2099887;28;46013;-49
2024/03/10 04:32:27;;;;;;;;;0.00;0.00;;;;;13.01;100.00;98594.41;2100048;27;47000;-51
2024/03/10 04:33:27;;;;;;;;;0.00;0.00;;;;;12.99;100.00;98590.13;2106372;27;46152;-49
2024/03/10 04:34:27;;;;;;;;;0.00;0.00;;;;;12.98;100.00;98589.28;2107735;27;46263;-50
2024/03/10 04:35:28;;;;;;;;;0.00;0.00;;;;;13.01;100.00;98589.06;2103222;27;45611;-47
2024/03/10 04:36:29;;;;;;;;;0.00;0.00;;;;;13.05;100.00;98595.03;2108751;27;46833;-49
2024/03/10 04:37:29;;;;;;;;;0.00;0.00;;;;;13.03;100.00;98591.63;2107407;27;46306;-47
2024/03/10 04:38:30;;;;;;;;;0.00;0.00;;;;;13.02;100.00;98582.78;2107557;27;46235;-47
2024/03/10 04:39:30;;;;;;;;;0.33;0.00;;;;;13.01;100.00;98585.56;2107260;27;46384;-46
2024/03/10 04:40:30;;;;;;;;;0.00;0.00;;;;;13.06;100.00;98584.28;2108548;27;46942;-50
2024/03/10 04:41:31;;;;;;;;;0.00;0.00;;;;;13.01;100.00;98580.22;2107698;27;46694;-47
2024/03/10 04:42:31;;;;;;;;;0.00;0.00;;;;;12.98;100.00;98580.44;2107401;27;46498;-47
2024/03/10 04:43:32;;;;;;;;;0.00;0.00;;;;;13.04;100.00;98575.53;2107215;27;46316;-47
2024/03/10 04:44:32;;;;;;;;;0.00;0.00;;;;;13.10;100.00;98571.66;2106321;27;45939;-47
2024/03/10 04:45:32;;;;;;;;;0.00;0.00;;;;;13.14;100.00;98574.00;2107516;27;46631;-46
2024/03/10 04:46:33;;;;;;;;;0.00;0.00;;;;;13.16;100.00;98569.41;2084873;28;46200;-49
2024/03/10 04:47:33;;;;;;;;;0.00;0.00;;;;;13.16;100.00;98574.75;2084921;28;46710;-48
2024/03/10 04:48:36;;;;;;;;;0.00;0.00;;;;;13.19;100.00;98573.72;2106420;27;46960;-47
2024/03/10 04:49:39;;;;;;;;;0.00;0.00;;;;;13.18;100.00;98571.97;2107251;27;46875;-48
2024/03/10 04:50:41;;;;;;;;;0.00;0.00;;;;;13.18;100.00;98579.97;2105826;27;45834;-48
2024/03/10 04:51:41;;;;;;;;;0.00;0.00;;;;;13.16;100.00;98585.38;2106599;27;46421;-48
2024/03/10 04:52:42;;;;;;;;;0.00;0.00;;;;;13.12;100.00;98583.03;2106167;27;46150;-50
2024/03/10 04:53:43;;;;;;;;;0.00;0.00;;;;;13.17;100.00;98592.41;2107088;27;46197;-47
2024/03/10 04:54:45;;;;;;;;;1.00;0.00;;;;;13.17;100.00;98588.91;2107513;27;46029;-47
2024/03/10 04:55:45;;;;;;;;;1.00;0.00;;;;;13.18;100.00;98594.16;2107889;27;46486;-46
2024/03/10 04:56:46;;;;;;;;;0.00;0.00;;;;;13.13;100.00;98596.25;2105394;27;46156;-48
2024/03/10 04:57:47;;;;;;;;;0.00;0.00;;;;;13.12;100.00;98591.03;2107139;27;46548;-48
2024/03/10 04:58:49;;;;;;;;;0.00;0.00;;;;;13.13;100.00;98592.75;2107376;27;46387;-46
2024/03/10 04:59:50;;;;;;;;;0.00;0.00;;;;;13.13;100.00;98596.25;2106667;27;46511;-46